createdAt,value
2018-12-02T00:00:59.273Z,92.25
2018-12-02T00:01:59.233Z,92.55
2018-12-02T00:02:59.249Z,92.66
2018-12-02T00:03:59.207Z,92.86
2018-12-02T00:04:59.202Z,92.76
2018-12-02T00:05:59.242Z,93.23
2018-12-02T00:06:59.176Z,92.86
2018-12-02T00:07:59.185Z,92.14
2018-12-02T00:08:59.172Z,93.17
2018-12-02T00:09:59.149Z,92.76
2018-12-02T00:10:59.187Z,92.86
2018-12-02T00:11:59.159Z,92.86
2018-12-02T00:12:59.111Z,93.59
2018-12-02T00:13:59.139Z,93.48
2018-12-02T00:14:59.096Z,92.76
2018-12-02T00:15:59.090Z,93.13
2018-12-02T00:16:59.108Z,92.86
2018-12-02T00:17:59.083Z,92.55
2018-12-02T00:18:59.046Z,93.27
2018-12-02T00:19:59.063Z,93.17
2018-12-02T00:20:59.037Z,93.48
2018-12-02T00:21:59.061Z,93.59
2018-12-02T00:22:59.044Z,92.35
2018-12-02T00:23:58.990Z,92.97
2018-12-02T00:24:58.976Z,92.76
2018-12-02T00:25:58.965Z,92.86
2018-12-02T00:26:58.954Z,92.86
2018-12-02T00:27:59.051Z,92.04
2018-12-02T00:28:58.937Z,93.17
2018-12-02T00:29:58.926Z,93.59
2018-12-02T00:30:58.912Z,93.07
2018-12-02T00:31:58.903Z,93.54
2018-12-02T00:32:58.930Z,92.51
2018-12-02T00:33:58.878Z,92.97
2018-12-02T00:34:58.881Z,92.41
2018-12-02T00:35:58.858Z,93.23
2018-12-02T00:36:58.898Z,92.51
2018-12-02T00:37:58.865Z,92.66
2018-12-02T00:38:58.847Z,92.66
2018-12-02T00:39:58.828Z,92.21
2018-12-02T00:40:59.012Z,91.94
2018-12-02T00:41:58.793Z,92.41
2018-12-02T00:42:58.782Z,91.90
2018-12-02T00:43:58.798Z,92.61
2018-12-02T00:44:58.763Z,92.41
2018-12-02T00:45:58.751Z,92.72
2018-12-02T00:46:58.794Z,92.41
2018-12-02T00:47:58.726Z,92.72
2018-12-02T00:48:58.739Z,93.44
2018-12-02T00:49:58.704Z,93.33
2018-12-02T00:50:58.698Z,93.13
2018-12-02T00:51:58.682Z,92.82
2018-12-02T00:52:58.673Z,92.51
2018-12-02T00:53:58.684Z,92.51
2018-12-02T00:54:58.659Z,93.33
2018-12-02T00:55:58.646Z,93.13
2018-12-02T00:56:58.639Z,93.02
2018-12-02T00:57:58.633Z,91.90
2018-12-02T00:58:58.661Z,92.31
2018-12-02T00:59:58.607Z,91.90
2018-12-02T01:00:58.607Z,91.90
2018-12-02T01:01:58.572Z,92.21
2018-12-02T01:02:58.626Z,91.90
2018-12-02T01:03:58.577Z,92.00
2018-12-02T01:04:58.546Z,92.41
2018-12-02T01:05:58.572Z,92.72
2018-12-02T01:06:58.557Z,91.90
2018-12-02T01:07:58.513Z,91.80
2018-12-02T01:08:58.525Z,91.90
2018-12-02T01:09:58.570Z,91.90
2018-12-02T01:10:58.480Z,92.00
2018-12-02T01:11:58.471Z,91.90
2018-12-02T01:12:58.458Z,91.03
2018-12-02T01:13:58.446Z,91.65
2018-12-02T01:14:58.464Z,92.00
2018-12-02T01:15:58.489Z,91.75
2018-12-02T01:16:58.418Z,91.86
2018-12-02T01:17:58.402Z,91.49
2018-12-02T01:18:58.392Z,91.44
2018-12-02T01:19:58.408Z,91.49
2018-12-02T01:20:58.368Z,91.44
2018-12-02T01:21:58.401Z,91.24
2018-12-02T01:22:58.344Z,91.44
2018-12-02T01:23:58.348Z,91.65
2018-12-02T01:24:58.373Z,91.44
2018-12-02T01:25:58.355Z,91.86
2018-12-02T01:26:58.305Z,92.06
2018-12-02T01:27:58.293Z,92.06
2018-12-02T01:28:58.359Z,92.00
2018-12-02T01:29:58.277Z,91.96
2018-12-02T01:30:58.281Z,91.96
2018-12-02T01:31:58.271Z,91.59
2018-12-02T01:32:58.239Z,92.10
2018-12-02T01:33:58.228Z,92.27
2018-12-02T01:34:58.219Z,91.96
2018-12-02T01:35:58.231Z,91.59
2018-12-02T01:36:58.214Z,91.55
2018-12-02T01:37:58.197Z,91.55
2018-12-02T01:38:58.176Z,91.24
2018-12-02T01:39:58.204Z,91.44
2018-12-02T01:40:58.221Z,91.55
2018-12-02T01:41:58.146Z,91.55
2018-12-02T01:42:58.143Z,91.03
2018-12-02T01:43:58.134Z,91.75
2018-12-02T01:44:58.104Z,91.96
2018-12-02T01:45:58.159Z,90.93
2018-12-02T01:46:58.108Z,91.75
2018-12-02T01:47:58.141Z,91.44
2018-12-02T01:48:58.062Z,90.73
2018-12-02T01:49:58.056Z,91.65
2018-12-02T01:50:58.046Z,91.96
2018-12-02T01:51:58.083Z,91.75
2018-12-02T01:52:58.082Z,91.65
2018-12-02T01:53:58.045Z,91.44
2018-12-02T01:54:57.997Z,91.55
2018-12-02T01:55:57.991Z,91.24
2018-12-02T01:56:58.038Z,91.86
2018-12-02T01:57:58.027Z,91.35
2018-12-02T01:58:57.953Z,91.14
2018-12-02T01:59:57.947Z,91.65
2018-12-02T02:00:57.932Z,91.44
2018-12-02T02:01:57.920Z,91.35
2018-12-02T02:02:57.984Z,91.86
2018-12-02T02:03:57.898Z,91.24
2018-12-02T02:04:57.913Z,91.44
2018-12-02T02:05:57.876Z,91.24
2018-12-02T02:06:57.866Z,90.62
2018-12-02T02:07:57.896Z,91.55
2018-12-02T02:08:57.844Z,90.62
2018-12-02T02:09:57.846Z,90.62
2018-12-02T02:10:57.826Z,90.62
2018-12-02T02:11:57.809Z,90.73
2018-12-02T02:12:57.801Z,91.14
2018-12-02T02:13:57.834Z,90.52
2018-12-02T02:14:57.790Z,91.24
2018-12-02T02:15:57.777Z,90.48
2018-12-02T02:16:57.758Z,90.48
2018-12-02T02:17:57.876Z,90.11
2018-12-02T02:18:57.810Z,91.09
2018-12-02T02:19:57.727Z,91.09
2018-12-02T02:20:57.763Z,90.69
2018-12-02T02:21:57.710Z,90.52
2018-12-02T02:22:57.721Z,90.58
2018-12-02T02:23:57.758Z,91.20
2018-12-02T02:24:57.669Z,90.99
2018-12-02T02:25:57.658Z,91.65
2018-12-02T02:26:57.647Z,91.82
2018-12-02T02:27:57.638Z,91.65
2018-12-02T02:28:57.646Z,91.71
2018-12-02T02:29:57.646Z,91.86
2018-12-02T02:30:57.610Z,92.27
2018-12-02T02:31:57.596Z,92.43
2018-12-02T02:32:57.602Z,93.49
2018-12-02T02:33:57.573Z,94.32
2018-12-02T02:34:57.565Z,95.34
2018-12-02T02:35:57.582Z,95.44
2018-12-02T02:36:57.557Z,96.31
2018-12-02T02:37:57.585Z,96.82
2018-12-02T02:38:57.523Z,97.13
2018-12-02T02:39:57.508Z,97.85
2018-12-02T02:40:57.590Z,97.58
2018-12-02T02:41:57.488Z,98.57
2018-12-02T02:42:57.475Z,98.41
2018-12-02T02:43:57.465Z,98.20
2018-12-02T02:44:57.458Z,99.02
2018-12-02T02:45:57.518Z,99.12
2018-12-02T02:46:57.433Z,99.12
2018-12-02T02:47:57.420Z,99.22
2018-12-02T02:48:57.416Z,98.51
2018-12-02T02:49:57.399Z,98.10
2018-12-02T02:50:57.412Z,98.61
2018-12-02T02:51:57.416Z,99.84
2018-12-02T02:52:57.367Z,99.84
2018-12-02T02:53:57.355Z,99.99
2018-12-02T02:54:57.343Z,99.84
2018-12-02T02:55:57.359Z,99.99
2018-12-02T02:56:57.334Z,99.99
2018-12-02T02:57:57.342Z,99.99
2018-12-02T02:58:57.347Z,99.99
2018-12-02T02:59:57.291Z,99.99
2018-12-02T03:00:57.306Z,99.99
2018-12-02T03:01:57.267Z,99.99
2018-12-02T03:02:57.262Z,99.99
2018-12-02T03:03:57.247Z,99.99
2018-12-02T03:04:57.283Z,99.99
2018-12-02T03:05:57.271Z,99.99
2018-12-02T03:06:57.216Z,99.99
2018-12-02T03:07:57.206Z,99.99
2018-12-02T03:08:57.210Z,99.99
2018-12-02T03:09:57.184Z,99.99
2018-12-02T03:10:57.216Z,99.99
2018-12-02T03:11:57.201Z,99.99
2018-12-02T03:12:57.151Z,99.99
2018-12-02T03:13:57.160Z,99.99
2018-12-02T03:14:57.133Z,99.99
2018-12-02T03:15:57.120Z,99.99
2018-12-02T03:16:57.236Z,99.99
2018-12-02T03:17:57.128Z,99.99
2018-12-02T03:18:57.082Z,99.99
2018-12-02T03:19:58.981Z,99.99
2018-12-02T03:20:57.071Z,99.99
2018-12-02T03:21:57.054Z,99.99
2018-12-02T03:22:57.131Z,99.99
2018-12-02T03:23:57.033Z,99.99
2018-12-02T03:24:57.026Z,99.99
2018-12-02T03:25:57.095Z,99.99
2018-12-02T03:26:57.021Z,99.99
2018-12-02T03:27:57.549Z,99.99
2018-12-02T03:28:56.980Z,99.99
2018-12-02T03:29:56.966Z,99.99
2018-12-02T03:30:56.992Z,99.99
2018-12-02T03:31:57.035Z,99.99
2018-12-02T03:32:56.958Z,99.99
2018-12-02T03:33:56.942Z,99.99
2018-12-02T03:34:56.938Z,99.99
2018-12-02T03:35:56.904Z,99.99
2018-12-02T03:36:56.965Z,99.99
2018-12-02T03:37:56.945Z,99.99
2018-12-02T03:38:56.899Z,99.99
2018-12-02T03:39:56.903Z,99.99
2018-12-02T03:40:56.843Z,99.99
2018-12-02T03:41:56.949Z,99.99
2018-12-02T03:42:56.857Z,99.99
2018-12-02T03:43:56.823Z,99.99
2018-12-02T03:44:56.809Z,99.99
2018-12-02T03:45:56.814Z,99.99
2018-12-02T03:46:56.782Z,99.99
2018-12-02T03:47:56.766Z,99.99
2018-12-02T03:48:56.830Z,99.99
2018-12-02T03:49:56.753Z,99.99
2018-12-02T03:50:56.739Z,99.99
2018-12-02T03:51:56.733Z,99.99
2018-12-02T03:52:56.717Z,99.99
2018-12-02T03:53:56.726Z,99.99
2018-12-02T03:54:56.742Z,99.99
2018-12-02T03:55:56.682Z,99.99
2018-12-02T03:56:56.699Z,99.99
2018-12-02T03:57:56.666Z,99.99
2018-12-02T03:58:56.672Z,99.99
2018-12-02T03:59:56.642Z,99.99
2018-12-02T04:00:56.683Z,99.99
2018-12-02T04:01:56.616Z,99.99
2018-12-02T04:02:56.668Z,99.99
2018-12-02T04:03:56.616Z,99.99
2018-12-02T04:04:56.609Z,99.99
2018-12-02T04:05:56.572Z,99.99
2018-12-02T04:06:56.564Z,99.99
2018-12-02T04:07:56.555Z,99.99
2018-12-02T04:08:56.563Z,99.99
2018-12-02T04:09:56.587Z,99.99
2018-12-02T04:10:56.530Z,99.99
2018-12-02T04:11:56.511Z,99.99
2018-12-02T04:12:56.501Z,99.99
2018-12-02T04:13:56.519Z,99.99
2018-12-02T04:14:56.513Z,99.99
2018-12-02T04:15:56.462Z,99.99
2018-12-02T04:16:56.513Z,99.99
2018-12-02T04:17:56.466Z,99.99
2018-12-02T04:18:56.471Z,99.99
2018-12-02T04:19:56.745Z,99.99
2018-12-02T04:20:56.448Z,99.99
2018-12-02T04:21:56.397Z,99.99
2018-12-02T04:22:56.386Z,99.99
2018-12-02T04:23:56.390Z,99.99
2018-12-02T04:24:56.391Z,99.99
2018-12-02T04:25:56.357Z,99.99
2018-12-02T04:26:56.345Z,99.99
2018-12-02T04:27:56.359Z,99.99
2018-12-02T04:28:56.327Z,99.99
2018-12-02T04:29:56.318Z,99.99
2018-12-02T04:30:56.364Z,99.99
2018-12-02T04:31:56.296Z,99.99
2018-12-02T04:32:56.287Z,99.99
2018-12-02T04:33:56.278Z,99.99
2018-12-02T04:34:56.307Z,99.99
2018-12-02T04:35:56.269Z,99.99
2018-12-02T04:36:56.245Z,99.99
2018-12-02T04:37:56.242Z,99.99
2018-12-02T04:38:56.218Z,99.99
2018-12-02T04:39:56.293Z,99.99
2018-12-02T04:40:56.220Z,99.99
2018-12-02T04:41:56.213Z,99.99
2018-12-02T04:42:56.169Z,99.99
2018-12-02T04:43:56.181Z,99.99
2018-12-02T04:44:56.341Z,99.99
2018-12-02T04:45:56.169Z,99.99
2018-12-02T04:46:56.156Z,99.99
2018-12-02T04:47:56.140Z,99.99
2018-12-02T04:48:56.106Z,99.99
2018-12-02T04:49:56.096Z,99.99
2018-12-02T04:50:56.205Z,99.99
2018-12-02T04:51:56.175Z,99.99
2018-12-02T04:52:56.063Z,99.99
2018-12-02T04:53:56.050Z,99.99
2018-12-02T04:54:56.165Z,99.99
2018-12-02T04:55:56.107Z,99.99
2018-12-02T04:56:56.018Z,99.99
2018-12-02T04:57:56.021Z,99.99
2018-12-02T04:58:55.994Z,99.99
2018-12-02T04:59:56.070Z,99.99
2018-12-02T05:00:56.005Z,99.99
2018-12-02T05:01:55.962Z,99.99
2018-12-02T05:02:56.105Z,99.99
2018-12-02T05:03:56.135Z,99.99
2018-12-02T05:04:55.957Z,99.99
2018-12-02T05:05:55.989Z,99.99
2018-12-02T05:06:56.035Z,99.99
2018-12-02T05:07:55.952Z,99.99
2018-12-02T05:08:55.985Z,99.99
2018-12-02T05:09:55.898Z,99.99
2018-12-02T05:10:55.924Z,99.99
2018-12-02T05:11:55.875Z,99.99
2018-12-02T05:12:55.843Z,99.99
2018-12-02T05:13:55.831Z,99.99
2018-12-02T05:14:55.837Z,99.99
2018-12-02T05:15:55.810Z,99.99
2018-12-02T05:16:55.872Z,99.99
2018-12-02T05:17:55.816Z,99.99
2018-12-02T05:18:55.778Z,99.99
2018-12-02T05:19:55.766Z,99.99
2018-12-02T05:20:55.802Z,99.99
2018-12-02T05:21:55.745Z,99.99
2018-12-02T05:22:55.756Z,99.99
2018-12-02T05:23:55.723Z,99.99
2018-12-02T05:24:55.737Z,99.99
2018-12-02T05:25:55.721Z,99.99
2018-12-02T05:26:55.690Z,99.99
2018-12-02T05:27:55.708Z,99.99
2018-12-02T05:28:55.685Z,99.99
2018-12-02T05:29:55.669Z,99.99
2018-12-02T05:30:55.649Z,99.99
2018-12-02T05:31:55.686Z,99.99
2018-12-02T05:32:55.665Z,99.99
2018-12-02T05:33:55.623Z,99.99
2018-12-02T05:34:55.620Z,99.99
2018-12-02T05:35:55.602Z,99.99
2018-12-02T05:36:55.590Z,99.99
2018-12-02T05:37:55.570Z,99.99
2018-12-02T05:38:55.588Z,99.99
2018-12-02T05:39:55.553Z,99.99
2018-12-02T05:40:55.549Z,99.99
2018-12-02T05:41:55.540Z,99.99
2018-12-02T05:42:55.555Z,99.99
2018-12-02T05:43:55.551Z,99.99
2018-12-02T05:44:55.512Z,99.99
2018-12-02T05:45:55.484Z,99.99
2018-12-02T05:46:55.493Z,99.99
2018-12-02T05:47:55.462Z,99.99
2018-12-02T05:48:55.546Z,99.99
2018-12-02T05:49:55.441Z,99.99
2018-12-02T05:50:55.435Z,99.99
2018-12-02T05:51:55.444Z,99.99
2018-12-02T05:52:55.411Z,99.99
2018-12-02T05:53:55.427Z,99.99
2018-12-02T05:54:55.384Z,99.99
2018-12-02T05:55:55.381Z,99.99
2018-12-02T05:56:55.363Z,99.99
2018-12-02T05:57:55.408Z,99.99
2018-12-02T05:58:55.379Z,99.99
2018-12-02T05:59:55.332Z,99.99
2018-12-02T06:00:55.319Z,99.99
2018-12-02T06:01:55.320Z,99.99
2018-12-02T06:02:55.297Z,99.99
2018-12-02T06:03:55.287Z,99.99
2018-12-02T06:04:55.329Z,99.99
2018-12-02T06:05:55.281Z,99.99
2018-12-02T06:06:55.256Z,99.99
2018-12-02T06:07:55.244Z,99.99
2018-12-02T06:08:55.286Z,99.99
2018-12-02T06:09:55.261Z,99.99
2018-12-02T06:10:55.214Z,99.99
2018-12-02T06:11:55.200Z,99.99
2018-12-02T06:12:55.191Z,99.99
2018-12-02T06:13:55.180Z,99.99
2018-12-02T06:14:55.218Z,99.99
2018-12-02T06:15:55.319Z,99.99
2018-12-02T06:16:55.149Z,99.99
2018-12-02T06:17:55.137Z,99.99
2018-12-02T06:18:55.123Z,99.99
2018-12-02T06:19:55.118Z,99.99
2018-12-02T06:20:55.184Z,99.99
2018-12-02T06:21:55.092Z,99.99
2018-12-02T06:22:55.081Z,99.99
2018-12-02T06:23:55.071Z,99.99
2018-12-02T06:24:55.058Z,99.99
2018-12-02T06:25:55.086Z,99.99
2018-12-02T06:26:55.036Z,99.99
2018-12-02T06:27:55.085Z,99.99
2018-12-02T06:28:55.017Z,99.99
2018-12-02T06:29:55.004Z,99.99
2018-12-02T06:30:54.992Z,99.99
2018-12-02T06:31:55.005Z,99.99
2018-12-02T06:32:54.974Z,99.99
2018-12-02T06:33:55.013Z,99.99
2018-12-02T06:34:54.950Z,99.99
2018-12-02T06:35:54.943Z,99.99
2018-12-02T06:36:54.969Z,99.99
2018-12-02T06:37:54.923Z,99.99
2018-12-02T06:38:54.906Z,99.99
2018-12-02T06:39:54.940Z,99.99
2018-12-02T06:40:54.919Z,99.99
2018-12-02T06:41:54.882Z,99.99
2018-12-02T06:42:54.896Z,99.99
2018-12-02T06:43:54.982Z,99.99
2018-12-02T06:44:54.844Z,99.99
2018-12-02T06:45:54.832Z,99.99
2018-12-02T06:46:54.867Z,99.99
2018-12-02T06:47:54.855Z,99.99
2018-12-02T06:48:54.805Z,99.99
2018-12-02T06:49:54.795Z,99.99
2018-12-02T06:50:54.780Z,99.99
2018-12-02T06:51:54.801Z,99.99
2018-12-02T06:52:54.782Z,99.99
2018-12-02T06:53:54.741Z,99.99
2018-12-02T06:54:54.776Z,99.99
2018-12-02T06:55:54.727Z,99.99
2018-12-02T06:56:54.710Z,99.99
2018-12-02T06:57:54.770Z,99.99
2018-12-02T06:58:54.694Z,99.99
2018-12-02T06:59:54.681Z,99.99
2018-12-02T07:00:54.669Z,99.99
2018-12-02T07:01:54.656Z,99.99
2018-12-02T07:02:54.747Z,99.99
2018-12-02T07:03:54.664Z,99.99
2018-12-02T07:04:54.637Z,99.99
2018-12-02T07:05:54.628Z,99.99
2018-12-02T07:06:54.609Z,99.99
2018-12-02T07:07:54.605Z,99.99
2018-12-02T07:08:54.612Z,99.99
2018-12-02T07:09:54.569Z,99.99
2018-12-02T07:10:54.564Z,99.99
2018-12-02T07:11:54.685Z,99.99
2018-12-02T07:12:54.542Z,99.99
2018-12-02T07:13:54.571Z,99.99
2018-12-02T07:14:54.519Z,99.99
2018-12-02T07:15:54.503Z,99.99
2018-12-02T07:16:54.520Z,99.99
2018-12-02T07:17:54.493Z,99.99
2018-12-02T07:18:54.474Z,99.99
2018-12-02T07:19:54.483Z,99.99
2018-12-02T07:20:54.543Z,99.99
2018-12-02T07:21:54.455Z,99.99
2018-12-02T07:22:54.431Z,99.99
2018-12-02T07:23:54.419Z,99.99
2018-12-02T07:24:54.436Z,99.99
2018-12-02T07:25:54.400Z,99.99
2018-12-02T07:26:54.431Z,99.99
2018-12-02T07:27:54.434Z,99.99
2018-12-02T07:28:54.363Z,99.99
2018-12-02T07:29:54.388Z,99.99
2018-12-02T07:30:54.339Z,99.99
2018-12-02T07:31:54.331Z,99.99
2018-12-02T07:32:54.324Z,99.99
2018-12-02T07:33:54.312Z,99.99
2018-12-02T07:34:54.339Z,99.99
2018-12-02T07:35:54.328Z,99.99
2018-12-02T07:36:54.276Z,99.99
2018-12-02T07:37:54.264Z,99.99
2018-12-02T07:38:54.255Z,99.99
2018-12-02T07:39:54.243Z,99.99
2018-12-02T07:40:54.315Z,99.99
2018-12-02T07:41:54.232Z,99.99
2018-12-02T07:42:54.209Z,99.99
2018-12-02T07:43:54.206Z,99.99
2018-12-02T07:44:54.193Z,99.99
2018-12-02T07:45:54.201Z,99.99
2018-12-02T07:46:54.211Z,99.99
2018-12-02T07:47:54.155Z,99.99
2018-12-02T07:48:54.145Z,99.99
2018-12-02T07:49:54.142Z,99.99
2018-12-02T07:50:54.185Z,99.99
2018-12-02T07:51:54.118Z,99.99
2018-12-02T07:52:54.100Z,99.99
2018-12-02T07:53:54.126Z,99.99
2018-12-02T07:54:54.079Z,99.99
2018-12-02T07:55:54.066Z,99.99
2018-12-02T07:56:54.086Z,99.99
2018-12-02T07:57:54.054Z,99.99
2018-12-02T07:58:54.037Z,99.99
2018-12-02T07:59:54.082Z,99.99
2018-12-02T08:00:54.015Z,99.99
2018-12-02T08:01:54.026Z,99.99
2018-12-02T08:02:54.034Z,99.99
2018-12-02T08:03:53.982Z,99.99
2018-12-02T08:04:53.988Z,99.99
2018-12-02T08:05:53.994Z,99.99
2018-12-02T08:06:53.972Z,99.99
2018-12-02T08:07:53.955Z,99.99
2018-12-02T08:08:53.926Z,99.99
2018-12-02T08:09:53.920Z,99.99
2018-12-02T08:10:53.907Z,99.99
2018-12-02T08:11:54.036Z,99.99
2018-12-02T08:12:53.889Z,99.99
2018-12-02T08:13:54.081Z,99.99
2018-12-02T08:14:53.934Z,99.99
2018-12-02T08:15:53.890Z,99.99
2018-12-02T08:16:54.014Z,99.99
2018-12-02T08:17:53.971Z,99.99
2018-12-02T08:18:53.830Z,99.99
2018-12-02T08:19:53.888Z,99.99
2018-12-02T08:20:53.810Z,99.99
2018-12-02T08:21:53.828Z,99.99
2018-12-02T08:22:53.814Z,99.99
2018-12-02T08:23:53.769Z,99.99
2018-12-02T08:24:53.752Z,99.99
2018-12-02T08:25:53.740Z,99.99
2018-12-02T08:26:53.744Z,99.99
2018-12-02T08:27:53.804Z,99.99
2018-12-02T08:28:53.710Z,99.99
2018-12-02T08:29:53.705Z,99.99
2018-12-02T08:30:53.728Z,99.99
2018-12-02T08:31:53.685Z,99.99
2018-12-02T08:32:53.695Z,99.99
2018-12-02T08:33:53.666Z,99.99
2018-12-02T08:34:53.653Z,99.99
2018-12-02T08:35:53.634Z,99.99
2018-12-02T08:36:53.645Z,99.99
2018-12-02T08:37:53.639Z,99.99
2018-12-02T08:38:53.604Z,99.99
2018-12-02T08:39:53.597Z,99.99
2018-12-02T08:40:53.585Z,99.99
2018-12-02T08:41:53.568Z,99.99
2018-12-02T08:42:53.818Z,99.99
2018-12-02T08:43:53.550Z,99.99
2018-12-02T08:44:53.545Z,99.99
2018-12-02T08:45:53.532Z,99.99
2018-12-02T08:46:53.524Z,99.99
2018-12-02T08:47:53.515Z,99.99
2018-12-02T08:48:53.546Z,99.99
2018-12-02T08:49:53.503Z,99.99
2018-12-02T08:50:53.479Z,99.99
2018-12-02T08:51:53.462Z,99.99
2018-12-02T08:52:53.451Z,99.99
2018-12-02T08:53:53.469Z,99.99
2018-12-02T08:54:53.440Z,99.99
2018-12-02T08:55:53.499Z,99.99
2018-12-02T08:56:53.430Z,99.99
2018-12-02T08:57:53.398Z,99.99
2018-12-02T08:58:53.423Z,99.99
2018-12-02T08:59:53.417Z,99.99
2018-12-02T09:00:53.388Z,99.99
2018-12-02T09:01:53.357Z,99.99
2018-12-02T09:02:53.345Z,99.99
2018-12-02T09:03:53.418Z,99.99
2018-12-02T09:04:53.357Z,99.99
2018-12-02T09:05:53.314Z,99.99
2018-12-02T09:06:53.304Z,99.99
2018-12-02T09:07:53.357Z,99.99
2018-12-02T09:08:53.279Z,99.99
2018-12-02T09:09:59.341Z,99.99
2018-12-02T09:10:54.291Z,99.99
2018-12-02T09:11:53.320Z,99.99
2018-12-02T09:12:53.242Z,99.99
2018-12-02T09:13:53.229Z,99.99
2018-12-02T09:14:53.256Z,99.99
2018-12-02T09:15:53.229Z,99.99
2018-12-02T09:16:53.193Z,99.99
2018-12-02T09:17:53.220Z,99.99
2018-12-02T09:18:53.195Z,99.99
2018-12-02T09:19:53.165Z,99.99
2018-12-02T09:20:53.179Z,99.99
2018-12-02T09:21:53.144Z,99.99
2018-12-02T09:22:53.142Z,99.99
2018-12-02T09:23:53.120Z,99.99
2018-12-02T09:24:53.113Z,99.99
2018-12-02T09:25:53.124Z,99.99
2018-12-02T09:26:53.156Z,99.99
2018-12-02T09:27:53.077Z,99.99
2018-12-02T09:28:53.065Z,99.99
2018-12-02T09:29:53.161Z,99.99
2018-12-02T09:30:53.279Z,99.99
2018-12-02T09:31:53.054Z,99.99
2018-12-02T09:32:53.027Z,99.99
2018-12-02T09:33:53.119Z,99.99
2018-12-02T09:34:53.004Z,99.99
2018-12-02T09:35:52.991Z,99.99
2018-12-02T09:36:57.838Z,99.99
2018-12-02T09:37:54.092Z,99.99
2018-12-02T09:38:52.995Z,99.99
2018-12-02T09:39:52.985Z,99.99
2018-12-02T09:40:53.040Z,99.99
2018-12-02T09:41:52.994Z,99.99
2018-12-02T09:42:52.962Z,99.99
2018-12-02T09:43:52.939Z,99.99
2018-12-02T09:44:53.008Z,99.99
2018-12-02T09:45:52.884Z,99.99
2018-12-02T09:46:52.910Z,99.99
2018-12-02T09:47:52.883Z,99.99
2018-12-02T09:48:52.849Z,99.99
2018-12-02T09:49:52.838Z,99.99
2018-12-02T09:50:52.911Z,99.99
2018-12-02T09:51:52.941Z,99.99
2018-12-02T09:52:52.804Z,99.99
2018-12-02T09:53:52.796Z,99.99
2018-12-02T09:54:52.783Z,99.99
2018-12-02T09:55:52.821Z,99.99
2018-12-02T09:56:52.782Z,99.99
2018-12-02T09:57:52.864Z,99.99
2018-12-02T09:58:52.738Z,99.99
2018-12-02T09:59:52.730Z,99.99
2018-12-02T10:00:52.737Z,99.99
2018-12-02T10:01:52.809Z,99.99
2018-12-02T10:02:53.772Z,99.99
2018-12-02T10:03:52.683Z,99.99
2018-12-02T10:04:52.675Z,99.99
2018-12-02T10:05:52.689Z,99.99
2018-12-02T10:06:52.665Z,99.99
2018-12-02T10:07:52.663Z,99.99
2018-12-02T10:08:52.640Z,99.99
2018-12-02T10:09:52.744Z,99.99
2018-12-02T10:10:52.675Z,99.99
2018-12-02T10:11:52.625Z,99.99
2018-12-02T10:12:52.611Z,99.99
2018-12-02T10:13:52.600Z,99.99
2018-12-02T10:14:52.574Z,99.99
2018-12-02T10:15:52.584Z,99.99
2018-12-02T10:16:52.570Z,99.99
2018-12-02T10:17:52.561Z,99.99
2018-12-02T10:18:52.569Z,99.99
2018-12-02T10:19:52.517Z,99.99
2018-12-02T10:20:52.497Z,99.99
2018-12-02T10:21:52.706Z,99.99
2018-12-02T10:22:52.509Z,99.99
2018-12-02T10:23:52.466Z,99.99
2018-12-02T10:24:52.488Z,99.99
2018-12-02T10:25:52.443Z,99.99
2018-12-02T10:26:52.433Z,99.99
2018-12-02T10:27:52.458Z,99.99
2018-12-02T10:28:52.453Z,99.99
2018-12-02T10:29:52.444Z,99.99
2018-12-02T10:30:52.404Z,99.99
2018-12-02T10:31:52.426Z,99.99
2018-12-02T10:32:52.371Z,99.99
2018-12-02T10:33:52.392Z,99.99
2018-12-02T10:34:52.365Z,99.99
2018-12-02T10:35:52.428Z,99.99
2018-12-02T10:36:52.366Z,99.99
2018-12-02T10:37:52.311Z,99.99
2018-12-02T10:38:52.311Z,99.99
2018-12-02T10:39:52.334Z,99.99
2018-12-02T10:40:52.325Z,99.99
2018-12-02T10:41:52.267Z,99.99
2018-12-02T10:42:52.276Z,99.99
2018-12-02T10:43:52.262Z,99.99
2018-12-02T10:44:52.262Z,99.99
2018-12-02T10:45:52.226Z,99.99
2018-12-02T10:46:52.222Z,99.99
2018-12-02T10:47:52.213Z,99.99
2018-12-02T10:48:52.204Z,99.99
2018-12-02T10:49:52.215Z,99.99
2018-12-02T10:50:52.299Z,99.99
2018-12-02T10:51:52.183Z,99.99
2018-12-02T10:52:52.282Z,99.99
2018-12-02T10:53:52.138Z,99.99
2018-12-02T10:54:52.198Z,99.99
2018-12-02T10:55:52.126Z,99.99
2018-12-02T10:56:52.135Z,99.99
2018-12-02T10:57:52.111Z,99.99
2018-12-02T10:58:52.351Z,99.99
2018-12-02T10:59:52.083Z,99.99
2018-12-02T11:00:52.092Z,99.99
2018-12-02T11:01:52.060Z,99.99
2018-12-02T11:02:52.098Z,99.99
2018-12-02T11:03:52.039Z,99.99
2018-12-02T11:04:52.034Z,99.99
2018-12-02T11:05:52.051Z,99.99
2018-12-02T11:06:52.075Z,99.99
2018-12-02T11:07:52.005Z,99.70
2018-12-02T11:08:52.012Z,99.40
2018-12-02T11:09:51.983Z,98.94
2018-12-02T11:10:51.994Z,99.55
2018-12-02T11:11:52.045Z,99.30
2018-12-02T11:12:51.949Z,99.20
2018-12-02T11:13:52.057Z,98.28
2018-12-02T11:14:52.026Z,98.79
2018-12-02T11:15:51.997Z,99.20
2018-12-02T11:16:51.892Z,98.79
2018-12-02T11:17:51.884Z,98.79
2018-12-02T11:18:51.876Z,99.61
2018-12-02T11:19:51.963Z,99.30
2018-12-02T11:20:51.889Z,99.51
2018-12-02T11:21:51.841Z,99.00
2018-12-02T11:22:51.883Z,99.05
2018-12-02T11:23:51.843Z,98.79
2018-12-02T11:24:51.814Z,98.28
2018-12-02T11:25:51.794Z,98.24
2018-12-02T11:26:51.816Z,99.00
2018-12-02T11:27:51.797Z,98.59
2018-12-02T11:28:51.769Z,98.24
2018-12-02T11:29:51.808Z,98.59
2018-12-02T11:30:51.735Z,98.28
2018-12-02T11:31:51.764Z,98.24
2018-12-02T11:32:51.728Z,97.83
2018-12-02T11:33:51.711Z,98.14
2018-12-02T11:34:51.697Z,98.03
2018-12-02T11:35:51.687Z,98.14
2018-12-02T11:36:51.732Z,97.17
2018-12-02T11:37:51.697Z,96.46
2018-12-02T11:38:51.686Z,96.46
2018-12-02T11:39:51.634Z,96.87
2018-12-02T11:40:51.624Z,97.38
2018-12-02T11:41:51.628Z,96.56
2018-12-02T11:42:51.707Z,95.14
2018-12-02T11:43:51.600Z,95.65
2018-12-02T11:44:51.618Z,95.45
2018-12-02T11:45:51.579Z,95.45
2018-12-02T11:46:51.664Z,94.93
2018-12-02T11:47:51.575Z,95.61
2018-12-02T11:48:51.569Z,95.00
2018-12-02T11:49:51.575Z,94.48
2018-12-02T11:50:51.528Z,95.50
2018-12-02T11:51:51.529Z,95.20
2018-12-02T11:52:51.620Z,94.89
2018-12-02T11:53:51.488Z,94.54
2018-12-02T11:54:51.488Z,94.79
2018-12-02T11:55:51.463Z,94.64
2018-12-02T11:56:51.462Z,93.83
2018-12-02T11:57:51.470Z,94.85
2018-12-02T11:58:51.571Z,94.74
2018-12-02T11:59:51.419Z,94.95
2018-12-02T12:00:51.417Z,95.36
2018-12-02T12:01:51.427Z,96.01
2018-12-02T12:02:51.400Z,95.76
2018-12-02T12:03:51.453Z,96.88
2018-12-02T12:04:51.380Z,97.64
2018-12-02T12:05:51.361Z,98.05
2018-12-02T12:06:51.344Z,96.92
2018-12-02T12:07:51.334Z,97.03
2018-12-02T12:08:51.351Z,97.33
2018-12-02T12:09:51.313Z,97.64
2018-12-02T12:10:51.309Z,98.00
2018-12-02T12:11:51.410Z,97.94
2018-12-02T12:12:51.284Z,98.41
2018-12-02T12:13:51.324Z,97.89
2018-12-02T12:14:51.260Z,98.10
2018-12-02T12:15:51.327Z,97.29
2018-12-02T12:16:51.237Z,96.78
2018-12-02T12:17:51.252Z,96.47
2018-12-02T12:18:51.243Z,96.47
2018-12-02T12:19:51.219Z,96.68
2018-12-02T12:20:51.195Z,96.17
2018-12-02T12:21:51.289Z,96.33
2018-12-02T12:22:51.173Z,97.04
2018-12-02T12:23:51.194Z,95.92
2018-12-02T12:24:51.175Z,96.23
2018-12-02T12:25:51.148Z,96.23
2018-12-02T12:26:51.132Z,97.04
2018-12-02T12:27:51.127Z,96.58
2018-12-02T12:28:51.219Z,96.58
2018-12-02T12:29:51.098Z,97.14
2018-12-02T12:30:51.092Z,98.05
2018-12-02T12:31:51.078Z,97.44
2018-12-02T12:32:51.082Z,97.24
2018-12-02T12:33:51.081Z,97.34
2018-12-02T12:34:51.130Z,96.94
2018-12-02T12:35:51.049Z,97.04
2018-12-02T12:36:51.032Z,95.98
2018-12-02T12:37:51.067Z,96.95
2018-12-02T12:38:51.080Z,97.25
2018-12-02T12:39:50.997Z,95.22
2018-12-02T12:40:50.989Z,96.03
2018-12-02T12:41:50.984Z,97.66
2018-12-02T12:42:50.981Z,95.22
2018-12-02T12:43:50.970Z,94.82
2018-12-02T12:44:50.984Z,96.34
2018-12-02T12:45:50.947Z,96.03
2018-12-02T12:46:50.914Z,95.63
2018-12-02T12:47:50.914Z,97.35
2018-12-02T12:48:50.898Z,95.83
2018-12-02T12:49:51.004Z,96.23
2018-12-02T12:50:50.908Z,95.94
2018-12-02T12:51:50.859Z,95.12
2018-12-02T12:52:50.876Z,95.83